AirNav   TITAN Aviation Fuels
 
 490 users online  

9II4 Cruzan Field Airport
Arcadia, Indiana, USA

GOING TO ARCADIA?


FAA INFORMATION EFFECTIVE 16 JUNE 2022

Location

FAA Identifier: 9II4
Lat/Long: 40-10-21.0000N 085-56-41.0000W
40-10.350000N 085-56.683333W
40.1725000,-85.9447222
(estimated)
Elevation: 845 ft. / 258 m (estimated)
Variation: 03W (1990)
From city: 4 miles E of ARCADIA, IN
Time zone: UTC -4 (UTC -5 during Standard Time)
Zip code: 46034

Airport Operations

Airport use: Private use. Permission required prior to landing
Activation date: 11/1992
Control tower: no
ARTCC: CHICAGO CENTER
FSS: TERRE HAUTE FLIGHT SERVICE STATION
Attendance: UNATNDD
Wind indicator: yes
Segmented circle: no

Airport Communications

WX AWOS-3 at UMP (15 nm S): 119.375 (317-842-3911)
WX AWOS-3 at AID (16 nm E): 128.55 (765-442-1245)
WX AWOS-3PT at TYQ (16 nm SW): 120.725 (317-769-3154)
WX AWOS-3 at MQJ (20 nm S): 124.175 (317-335-3037)

Airport Services

Runway Information

Runway 9/27

Dimensions: 3300 x 70 ft. / 1006 x 21 m
Surface: turf
RUNWAY 9  RUNWAY 27
Latitude: 40-10.350000N
Longitude: 085-56.683333W
Elevation: 845.0 ft.
Traffic pattern: leftleft
Displaced threshold: no560 ft.
Obstructions: none35 ft. bldg, 140 ft. from runway

Airport Ownership and Management from official FAA records

Ownership: Privately-owned
Owner: ROBERT E. CRUZAN II
26410 S.R. 213
ARCADIA, IN 46030
Phone 317-439-0800
Manager: ROBERT E. CRUZAN II
26410 S.R. 213
ARCADIA, IN 46030
Phone 317-439-0800

Airport Operational Statistics

Aircraft based on the field: 4
Single engine airplanes: 1
Ultralights: 3
    

Additional Remarks

FOR CD CTC CHICAGO ARTCC AT 630-906-8921.

Instrument Procedures

There are no published instrument procedures at 9II4.

Some nearby airports with instrument procedures:

5I4 - Sheridan Airport (12 nm W)
KUMP - Indianapolis Metro Airport (15 nm S)
KAID - Anderson Municipal Airport-Darlington Field (16 nm E)
KTYQ - Indianapolis Executive Airport (16 nm SW)
KMQJ - Indianapolis Regional Airport (20 nm S)
 
Loc | Ops | Rwys | IFR | FBO | Links
Com | Nav | Svcs | Stats | Notes
Area around 9II4 (Cruzan Field Airport)
 
Road maps at: MapQuest Bing Google
 
Aerial photo
No photo
 
Sectional chart

 
Airport distance calculator
Flying to Cruzan Field Airport? Find the distance to fly.

From to 9II4

Sunrise and sunset
Times for 30-Jun-2022
 Local
(UTC-4)
 Zulu
(UTC)
Morning civil twilight05:4609:46
Sunrise06:1910:19
Sunset21:1601:16
Evening civil twilight21:4901:49

Current date and time
Zulu (UTC)  30-Jun-2022 08:36:22
Local (UTC-4)  30-Jun-2022 04:36:22
 
METAR
KUMP 
15nm S 
300813Z AUTO 00000KT 10SM CLR A3019 RMK AO2
KAID 
15nm E 
300815Z AUTO 00000KT 10SM CLR 16/11 A3021 RMK AO2 T01550112
KTYQ 
16nm SW 
300815Z AUTO 00000KT 10SM CLR 16/14 A3020 RMK AO2 T01620137
KMQJ 
20nm S 
300815Z AUTO 00000KT 10SM CLR 14/14 A3020 RMK AO1
KOKK 
22nm N 
300756Z AUTO 20005KT 10SM CLR 19/16 A3019 RMK AO2 SLP218 T01890156
KMZZ 
23nm NE 
300815Z AUTO 17004KT 10SM CLR 17/13 A3019 RMK AO2 T01660128
KMIE 
25nm E 
300753Z AUTO 20004KT 10SM CLR 21/11 A3019 RMK AO2 SLP213 T02110111
KFKR 
29nm W 
300815Z AUTO 17003KT 10SM SCT032 15/13 A3018 RMK AO2
KGUS 
29nm N 
300756Z AUTO 20003KT 10SM CLR 19/14 A3017 RMK AO2 SLP214 T01870138 $
TAF
KGUS 
29nm N 
292100Z 2921/0103 23009KT 9999 FEW050 QNH3018INS BECMG 3014/3015 20010G15KT 9999 SKC QNH3004INS TX32/3020Z TN16/3008Z LAST NO AMDS AFT 3003 NEXT 3013
KIND 
31nm SW 
300520Z 3006/0112 20007KT P6SM FEW250
NOTAMs
Click for the latest NOTAMs
NOTAMs are issued by the DoD/FAA and will open in a separate window not controlled by AirNav.

 

 
 

Would you like to see your business listed on this page?

 If your business provides an interesting product or service to pilots, flight crews, aircraft, or users of the Cruzan Field Airport, you should consider listing it here.  To start the listing process, click on the button below
 
Add a business
 

Other Pages about Cruzan Field Airport

Update a link
 
Copyright © AirNav, LLC. All rights reserved. Privacy Policy  Contact